Ocala, FL

2:32 PM EDT on August 30, 2015 (GMT -0400)
Windemere-Glen | | Change Station
CLOSE
Current Station
Personal Weather Station
Location: Ocala, FL
Elevation: 79 ft
Nearby Weather Stations

Elev 79 ft 29.18 °N, 82.07 °W | Updated 31 seconds ago

Overcast
Overcast
85.5 °F
Feels Like 101 °F
N
0.0
Wind Variable Wind from SW
Gusts 0.0 mph

Today
High -- | Low -- °F
--% Chance of Precip.
Yesterday
High -- | Low -- °F
Precip. -- in
7:04 AM 7:52 PM
Full, 98% visible
Pressure 30.01 in
Visibility 7.0 miles
Clouds Overcast 2500 ft
Mostly Cloudy 4000 ft
Heat Index 101 °F
Dew Point 80 °F
Humidity 85%
Rainfall 0.11 in
Snow Depth Not available.
UV 3.0 out of 12
Pollen 1.40 out of 12
Air Quality Not available.
Flu Activity Not available.
METAR KOCF 301750Z 18008KT 7SM -RA OVC025 BKN040 29/24 A3001
Pressure 30.01 in
Visibility 7.0 miles
Clouds Overcast 2500 ft
Mostly Cloudy 4000 ft
Heat Index 101 °F
Dew Point 80 °F
Humidity 85%
Rainfall 0.11 in
Snow Depth Not available.
UV 3.0 out of 12
Pollen 1.40 out of 12
Air Quality Not available.
Flu Activity Not available.
METAR KOCF 301750Z 18008KT 7SM -RA OVC025 BKN040 29/24 A3001

10-Day Weather Forecast

×

Almanac

Astronomy

Aug. 30, 2015 Rise Set
Actual Time
Civil Twilight
Nautical Twilight
Astronomical Twilight
Moon
Length of Visible Light
Length of Day
Tomorrow will be .
, % of the Moon is Illuminated

Today's Extremes

State Highs State Lows

Community

WunderPhotos

Upload Photos

1,851,031 photos uploaded!

WunderBlogs® & News

Nearby

Air Quality

  Air Quality AQ Index Pollutant
Not available.

Snow Depth

Station Depth Elevation

Earthquake Activity

City Distance Mag. Time & Date
Minimum magnitude displayed is 2.5.

Coastal Water Temperatures

Place Temperature

Stations

Nearby Weather Stations

Station Location Temp. Windchill Dew Point Humidity Wind Precip. Elev Updated Type